Time;durP1;ratioP1;P1;durP2;ratioP2;P2;SDS_P1;SDS_P2;PMS_P1;PMS_P2;Temp;Humidity;BMP_temperature;BMP_pressure;BME280_temperature;BME280_humidity;BME280_pressure;Samples;Min_cycle;Max_cycle;Signal;HPM_P1;HPM_P2
2022/05/27 00:02:14;;;;;;;11.88;3.33;;;;;;;21.52;50.92;95765.50;4924894;29;20464;-83
2022/05/27 00:04:39;;;;;;;4.53;2.75;;;;;;;20.98;50.34;95652.09;4953345;28;20027;-83
2022/05/27 00:07:05;;;;;;;6.10;2.88;;;;;;;21.65;50.24;95744.78;4956212;28;20122;-82
2022/05/27 00:09:30;;;;;;;7.63;3.33;;;;;;;21.53;50.14;95705.81;4955221;29;20039;-83
2022/05/27 00:11:55;;;;;;;11.50;3.33;;;;;;;22.01;49.80;95755.78;4955988;29;20035;-82
2022/05/27 00:14:21;;;;;;;8.88;3.25;;;;;;;21.94;49.55;95740.09;4930238;29;20038;-82
2022/05/27 00:16:46;;;;;;;9.07;3.03;;;;;;;22.19;50.47;95780.72;4946757;29;20058;-82
2022/05/27 00:19:12;;;;;;;6.53;2.58;;;;;;;21.83;49.53;95751.63;4956139;29;20090;-82
2022/05/27 00:21:37;;;;;;;9.98;3.38;;;;;;;21.67;49.95;95732.53;4938057;29;20034;-82
2022/05/27 00:24:03;;;;;;;10.95;3.13;;;;;;;21.67;49.90;95716.34;4938521;29;20125;-82
2022/05/27 00:26:29;;;;;;;9.10;4.13;;;;;;;21.61;50.39;95720.38;4956286;29;20031;-82
2022/05/27 00:28:54;;;;;;;5.80;3.60;;;;;;;21.64;50.58;95719.72;4938172;29;20035;-82
2022/05/27 00:31:21;;;;;;;13.63;3.95;;;;;;;21.49;51.25;95696.81;4937686;29;20049;-82
2022/05/27 00:33:47;;;;;;;8.50;3.72;;;;;;;22.16;50.97;95774.06;4938391;29;20035;-82
2022/05/27 00:36:14;;;;;;;13.48;4.10;;;;;;;21.92;50.76;95730.72;4956032;29;20035;-82
2022/05/27 00:38:41;;;;;;;8.35;4.20;;;;;;;22.21;50.53;95771.16;4938372;29;20577;-82
2022/05/27 00:41:07;;;;;;;10.93;4.43;;;;;;;22.22;50.81;95770.03;4933781;29;20034;-82
2022/05/27 00:43:33;;;;;;;15.68;4.22;;;;;;;22.12;50.62;95743.47;4955141;29;20031;-82
2022/05/27 00:46:27;;;;;;;8.07;3.83;;;;;;;22.27;50.73;95769.06;4956134;29;20037;-82
2022/05/27 00:49:17;;;;;;;10.10;3.97;;;;;;;22.30;50.14;95769.16;4952299;29;20043;-83
2022/05/27 00:51:49;;;;;;;7.57;4.07;;;;;;;22.05;50.52;95772.88;4936453;29;20489;-82
2022/05/27 00:54:17;;;;;;;9.30;4.28;;;;;;;22.21;50.51;95764.97;4938013;29;20023;-82
2022/05/27 00:56:45;;;;;;;8.70;4.30;;;;;;;22.26;50.52;95770.97;4937491;29;20070;-82
2022/05/27 00:59:36;;;;;;;8.23;3.95;;;;;;;22.27;50.72;95771.75;4955225;29;20534;-82
2022/05/27 01:02:02;;;;;;;10.48;3.67;;;;;;;21.93;50.91;95713.41;4954411;29;20023;-82
2022/05/27 01:04:29;;;;;;;14.20;3.95;;;;;;;21.75;50.74;95674.19;4937721;29;20047;-82
2022/05/27 01:06:55;;;;;;;7.32;3.65;;;;;;;21.55;50.65;95686.59;4955157;28;20039;-82
2022/05/27 01:09:21;;;;;;;8.88;4.15;;;;;;;22.15;50.98;95764.38;4928843;29;20099;-83
2022/05/27 01:12:17;;;;;;;9.68;4.30;;;;;;;22.11;51.33;95763.47;4950774;29;20035;-82
2022/05/27 01:14:52;;;;;;;11.98;4.32;;;;;;;22.17;51.16;95766.75;4937717;28;20042;-82
2022/05/27 01:17:34;;;;;;;11.95;4.47;;;;;;;22.11;51.11;95762.69;4936851;28;20079;-82
2022/05/27 01:20:22;;;;;;;7.70;3.83;;;;;;;22.07;51.20;95759.06;4944401;29;20138;-82
2022/05/27 01:23:15;;;;;;;9.23;3.67;;;;;;;21.84;51.69;95754.00;4937133;29;20528;-83
2022/05/27 01:26:07;;;;;;;8.23;3.85;;;;;;;21.91;51.72;95750.75;4937689;29;20142;-83
2022/05/27 01:28:36;;;;;;;9.98;3.92;;;;;;;21.52;51.47;95695.34;4923552;29;20545;-82
2022/05/27 01:31:10;;;;;;;10.07;3.88;;;;;;;21.90;51.48;95749.16;4954461;29;20102;-82
2022/05/27 01:33:47;;;;;;;9.82;4.53;;;;;;;21.35;51.85;95704.38;4954426;29;20467;-82
2022/05/27 01:36:33;;;;;;;6.05;3.92;;;;;;;20.35;52.70;95602.72;4937247;29;20035;-82
2022/05/27 01:39:23;;;;;;;8.98;3.78;;;;;;;21.44;52.41;95742.88;4905833;29;20131;-83
2022/05/27 01:41:59;;;;;;;9.05;3.95;;;;;;;21.36;52.83;95749.13;4935513;29;20042;-82
2022/05/27 01:44:31;;;;;;;6.53;3.88;;;;;;;21.44;52.47;95748.25;4934194;28;20429;-82
2022/05/27 01:46:57;;;;;;;8.93;4.05;;;;;;;21.08;52.59;95688.66;4953773;29;20590;-82
2022/05/27 01:49:33;;;;;;;8.57;3.63;;;;;;;20.66;52.38;95607.75;4936865;29;20031;-82
2022/05/27 01:52:08;;;;;;;13.10;4.25;;;;;;;21.51;52.44;95739.66;4936936;29;20035;-82
2022/05/27 01:54:40;;;;;;;13.48;4.22;;;;;;;21.40;52.70;95739.25;4954376;28;20046;-82
2022/05/27 01:57:12;;;;;;;12.27;3.70;;;;;;;20.83;53.25;95692.34;4954573;29;20508;-82
2022/05/27 01:59:43;;;;;;;11.63;4.10;;;;;;;20.99;54.11;95744.56;4937136;29;20134;-83
2022/05/27 02:02:15;;;;;;;8.20;3.88;;;;;;;20.36;54.50;95673.53;4936811;29;20043;-83
2022/05/27 02:04:54;;;;;;;9.57;4.50;;;;;;;20.94;54.33;95758.22;4936687;29;20410;-82
2022/05/27 02:07:25;;;;;;;7.78;4.35;;;;;;;20.48;54.23;95679.00;4937026;29;20039;-82
2022/05/27 02:09:58;;;;;;;10.35;4.60;;;;;;;20.64;54.66;95717.78;4955017;29;20039;-83
2022/05/27 02:12:31;;;;;;;11.32;4.70;;;;;;;20.92;54.46;95753.16;4951026;29;20470;-83
2022/05/27 02:15:02;;;;;;;6.65;4.22;;;;;;;20.52;54.26;95681.88;4954038;29;20481;-83
2022/05/27 02:17:38;;;;;;;11.25;4.55;;;;;;;20.87;54.51;95728.28;4954026;29;20054;-82
2022/05/27 02:20:08;;;;;;;24.77;5.03;;;;;;;20.50;54.14;95670.63;4954595;29;20118;-83
2022/05/27 02:22:38;;;;;;;;;;;;;;;20.97;54.45;95742.22;4938314;29;20058;-83
2022/05/27 02:25:21;;;;;;;22.98;6.10;;;;;;;20.84;54.84;95747.81;4954212;29;19922;-83
2022/05/27 02:28:15;;;;;;;39.80;6.80;;;;;;;20.55;54.66;95689.28;4950023;28;20127;-83
2022/05/27 02:30:45;;;;;;;42.95;6.68;;;;;;;20.79;55.15;95746.88;4936550;29;20034;-83
2022/05/27 02:36:05;;;;;;;31.30;6.47;;;;;;;20.37;55.07;95681.25;4953964;29;20045;-83
2022/05/27 02:38:31;;;;;;;18.67;5.75;;;;;;;20.42;54.28;95697.28;4936499;28;20047;-83
2022/05/27 02:41:15;;;;;;;10.32;4.82;;;;;;;20.72;53.80;95754.69;4935989;29;20050;-83
2022/05/27 02:44:05;;;;;;;8.18;4.28;;;;;;;20.55;53.96;95753.94;4936134;29;20047;-83
2022/05/27 02:46:39;;;;;;;10.00;4.28;;;;;;;20.53;54.16;95753.47;4953798;28;20031;-83
2022/05/27 02:49:34;;;;;;;8.95;4.38;;;;;;;20.12;54.02;95674.06;4953606;29;20055;-82
2022/05/27 02:52:05;;;;;;;17.35;4.93;;;;;;;20.73;53.86;95758.19;4953665;29;20031;-82
2022/05/27 02:54:43;;;;;;;15.53;5.10;;;;;;;20.68;54.14;95747.56;4935512;29;20039;-82
2022/05/27 02:57:30;;;;;;;11.18;5.13;;;;;;;20.46;53.92;95712.78;4949668;29;20293;-82
2022/05/27 02:59:57;;;;;;;12.30;4.70;;;;;;;20.70;53.99;95753.41;4936112;29;20158;-82
2022/05/27 03:02:22;;;;;;;16.35;4.30;;;;;;;20.17;53.88;95670.38;4935978;29;20043;-82
2022/05/27 03:04:53;;;;;;;12.77;4.82;;;;;;;20.31;54.75;95743.69;4952981;29;20621;-82
2022/05/27 03:07:41;;;;;;;12.47;4.67;;;;;;;20.26;54.98;95760.03;4936351;29;20031;-81
2022/05/27 03:10:10;;;;;;;10.68;4.85;;;;;;;20.31;54.76;95749.88;4936210;29;20126;-82
2022/05/27 03:13:04;;;;;;;9.77;4.93;;;;;;;20.20;55.38;95754.03;4936155;29;20534;-83
2022/05/27 03:15:43;;;;;;;11.85;5.38;;;;;;;19.34;56.09;95659.13;4866953;29;20057;-82
2022/05/27 03:18:21;;;;;;;10.40;5.18;;;;;;;20.14;55.52;95762.59;4935682;29;20028;-83
2022/05/27 03:20:54;;;;;;;14.35;5.03;;;;;;;20.27;55.25;95767.00;4934273;29;20058;-82
2022/05/27 03:23:57;;;;;;;11.75;5.05;;;;;;;20.29;55.35;95767.47;4944563;29;20040;-83
2022/05/27 03:26:28;;;;;;;11.60;5.22;;;;;;;20.03;56.27;95762.94;4933266;29;20027;-82
2022/05/27 03:29:00;;;;;;;;;;;;;;;20.10;56.22;95761.66;4935893;29;20035;-82
2022/05/27 03:31:29;;;;;;;;;;;;;;;20.30;55.48;95759.06;4953376;29;19918;-82
2022/05/27 03:34:14;;;;;;;8.80;5.10;;;;;;;20.38;55.18;95750.19;4935366;29;19973;-81
2022/05/27 03:37:01;;;;;;;16.63;5.75;;;;;;;19.82;55.31;95685.84;4935099;29;20034;-83
2022/05/27 03:39:47;;;;;;;18.85;6.18;;;;;;;20.43;55.00;95762.72;4936858;29;20043;-83
2022/05/27 03:42:13;;;;;;;13.73;5.30;;;;;;;20.23;55.22;95720.25;4942600;29;20486;-83
2022/05/27 03:44:56;;;;;;;12.15;4.82;;;;;;;20.02;55.35;95690.56;4935509;29;20035;-82
2022/05/27 03:47:21;;;;;;;13.40;5.25;;;;;;;19.98;54.97;95679.66;4937541;29;20035;-81
2022/05/27 03:49:46;;;;;;;10.73;6.13;;;;;;;19.35;55.28;95612.28;4938941;29;20023;-82
2022/05/27 03:52:19;;;;;;;16.35;6.85;;;;;;;20.54;54.79;95761.25;4925147;29;20078;-83
2022/05/27 03:54:45;;;;;;;8.38;6.15;;;;;;;20.53;54.83;95738.09;4957654;28;20117;-83
2022/05/27 03:57:11;;;;;;;17.35;6.15;;;;;;;20.53;54.87;95742.69;4938658;29;20046;-83
2022/05/27 03:59:36;;;;;;;17.08;5.85;;;;;;;20.66;54.59;95764.06;4956626;29;20110;-83
2022/05/27 04:02:01;;;;;;;23.67;5.28;;;;;;;20.06;54.64;95659.19;4956905;29;20486;-83
2022/05/27 04:04:28;;;;;;;14.73;5.55;;;;;;;20.69;54.35;95757.22;4944436;29;20040;-83
2022/05/27 04:06:54;;;;;;;15.40;5.93;;;;;;;19.81;53.93;95614.28;4921057;29;20039;-83
2022/05/27 04:09:22;;;;;;;14.10;5.22;;;;;;;20.83;53.96;95773.19;4934787;29;20031;-82
2022/05/27 04:11:49;;;;;;;20.35;5.78;;;;;;;20.62;54.20;95763.13;4955948;29;20054;-86
2022/05/27 04:14:15;;;;;;;11.43;5.97;;;;;;;20.32;53.71;95699.50;4953673;29;20035;-86
2022/05/27 04:16:40;;;;;;;22.60;7.93;;;;;;;20.63;54.71;95755.81;4937720;28;20477;-85
2022/05/27 04:19:07;;;;;;;20.98;8.38;;;;;;;20.78;54.89;95761.47;4933926;29;20039;-86
2022/05/27 04:21:33;;;;;;;24.17;8.95;;;;;;;20.90;54.72;95758.09;4923884;29;20165;-86
2022/05/27 04:23:59;;;;;;;21.38;8.93;;;;;;;20.77;54.84;95757.19;4925790;29;20118;-86
2022/05/27 04:26:25;;;;;;;25.67;9.15;;;;;;;20.42;55.36;95729.59;4928033;29;20036;-86
2022/05/27 04:28:51;;;;;;;25.48;8.85;;;;;;;20.63;54.86;95718.09;4935174;29;20460;-86
2022/05/27 04:31:16;;;;;;;22.58;9.18;;;;;;;18.46;54.69;95388.81;4920565;29;20075;-85
2022/05/27 04:33:43;;;;;;;15.65;8.50;;;;;;;20.75;54.69;95751.31;4920573;29;20494;-85
2022/05/27 04:36:08;;;;;;;22.60;9.75;;;;;;;20.76;54.62;95744.81;4924943;29;20039;-86
2022/05/27 04:38:35;;;;;;;17.65;9.05;;;;;;;20.47;55.22;95720.53;4927461;29;20033;-85
2022/05/27 04:41:01;;;;;;;16.95;7.53;;;;;;;20.68;54.36;95736.78;4917111;29;20039;-85
2022/05/27 04:43:27;;;;;;;16.73;7.38;;;;;;;19.84;54.15;95629.78;4916065;29;20031;-85
2022/05/27 04:45:53;;;;;;;26.02;8.07;;;;;;;18.81;54.92;95467.50;4915339;29;20343;-85
2022/05/27 04:48:19;;;;;;;18.27;9.07;;;;;;;19.92;54.36;95635.16;4938062;29;20035;-86
2022/05/27 04:50:45;;;;;;;24.92;8.23;;;;;;;20.60;54.12;95738.38;4921326;29;20441;-86
2022/05/27 04:53:11;;;;;;;16.15;7.03;;;;;;;20.77;54.20;95784.16;4915156;29;20039;-86
2022/05/27 04:55:38;;;;;;;17.58;6.88;;;;;;;20.14;53.93;95661.03;4920637;29;20270;-86
2022/05/27 04:58:14;;;;;;;16.00;6.50;;;;;;;18.74;54.27;95456.47;4938154;28;20466;-85
2022/05/27 05:00:45;;;;;;;15.57;6.38;;;;;;;16.61;54.10;95115.41;4937912;29;20150;-85
2022/05/27 05:03:12;;;;;;;24.27;7.93;;;;;;;20.90;54.08;95752.72;4931776;29;20423;-85
2022/05/27 05:05:38;;;;;;;16.20;7.63;;;;;;;20.76;54.84;95754.81;4913167;29;20501;-85
2022/05/27 05:08:34;;;;;;;21.65;8.95;;;;;;;20.96;54.42;95751.41;4907808;29;20050;-85
2022/05/27 05:11:04;;;;;;;14.00;7.70;;;;;;;20.60;54.85;95735.69;4935496;29;20047;-85
2022/05/27 05:13:31;;;;;;;22.40;8.55;;;;;;;20.54;54.42;95687.69;4916394;29;20438;-85
2022/05/27 05:15:58;;;;;;;30.83;8.55;;;;;;;20.84;54.60;95751.28;4916538;29;20111;-85
2022/05/27 05:18:23;;;;;;;20.27;8.18;;;;;;;20.00;54.39;95630.84;4916112;29;20893;-85
2022/05/27 05:20:49;;;;;;;22.55;8.18;;;;;;;20.45;54.77;95703.91;4915610;29;20534;-85
2022/05/27 05:23:15;;;;;;;21.85;7.65;;;;;;;20.65;54.63;95718.56;4923948;29;20654;-85
2022/05/27 05:25:41;;;;;;;26.05;8.80;;;;;;;18.95;54.35;95459.25;4910578;29;20039;-85
2022/05/27 05:28:06;;;;;;;17.05;7.53;;;;;;;20.27;54.53;95700.47;4910114;29;20039;-85
2022/05/27 05:30:32;;;;;;;21.45;7.53;;;;;;;20.25;54.54;95691.91;4921236;29;20043;-85
2022/05/27 05:32:57;;;;;;;29.20;8.45;;;;;;;20.77;54.45;95732.94;4925659;29;20047;-85
2022/05/27 05:35:23;;;;;;;19.10;7.72;;;;;;;19.93;54.17;95607.13;4911451;29;20766;-85
2022/05/27 05:37:49;;;;;;;22.75;7.55;;;;;;;20.40;54.11;95677.16;4913356;29;20040;-85
2022/05/27 05:40:15;;;;;;;23.77;7.88;;;;;;;20.55;54.26;95694.66;4916193;29;20090;-85
2022/05/27 05:42:41;;;;;;;16.48;6.75;;;;;;;20.15;53.95;95630.31;4927038;29;20055;-85
2022/05/27 05:45:11;;;;;;;15.50;7.18;;;;;;;20.42;53.64;95666.84;4917256;29;20040;-85
2022/05/27 05:47:36;;;;;;;11.48;6.00;;;;;;;20.38;53.01;95668.59;4937312;29;20043;-83
2022/05/27 05:50:02;;;;;;;13.73;5.22;;;;;;;20.92;52.51;95745.06;4913908;29;20094;-85
2022/05/27 05:52:27;;;;;;;14.02;5.20;;;;;;;20.79;52.34;95713.75;4928555;29;20028;-85
2022/05/27 05:54:53;;;;;;;16.05;4.68;;;;;;;20.53;52.26;95702.28;4910565;29;20028;-85
2022/05/27 05:57:18;;;;;;;12.02;4.95;;;;;;;20.74;52.50;95733.59;4930199;29;20320;-86
2022/05/27 05:59:44;;;;;;;16.13;5.47;;;;;;;20.67;52.25;95735.97;4916138;29;20390;-85
2022/05/27 06:02:09;;;;;;;20.70;5.35;;;;;;;20.52;52.18;95689.94;4912797;29;20040;-85
2022/05/27 06:04:35;;;;;;;15.35;5.03;;;;;;;20.97;52.19;95752.19;4933840;29;20039;-85
2022/05/27 06:07:00;;;;;;;10.20;5.05;;;;;;;20.46;52.47;95721.66;4918189;29;20123;-84
2022/05/27 06:09:26;;;;;;;15.35;5.30;;;;;;;20.42;52.04;95685.69;4910674;29;20036;-84
2022/05/27 06:11:53;;;;;;;13.43;5.45;;;;;;;20.46;52.78;95700.09;4910072;29;20047;-84
2022/05/27 06:14:19;;;;;;;14.52;5.35;;;;;;;20.21;52.10;95645.22;4925910;29;20070;-84
2022/05/27 06:16:44;;;;;;;9.38;4.60;;;;;;;20.06;51.74;95610.72;4910333;29;20027;-84
2022/05/27 06:19:09;;;;;;;22.50;5.00;;;;;;;20.54;52.10;95675.03;4914292;29;20042;-84
2022/05/27 06:21:35;;;;;;;15.25;5.38;;;;;;;20.52;51.91;95665.69;4902173;29;20028;-84
2022/05/27 06:24:03;;;;;;;17.80;5.97;;;;;;;20.46;51.91;95626.56;4926603;29;20047;-84
2022/05/27 06:26:29;;;;;;;16.92;5.25;;;;;;;20.21;52.02;95612.09;4906885;29;20392;-85
2022/05/27 06:34:25;;;;;;;18.85;5.75;;;;;;;20.76;51.11;95653.19;4929053;29;20042;-85
2022/05/27 06:37:08;;;;;;;15.52;5.43;;;;;;;20.87;51.58;95682.47;4930052;29;20039;-85
2022/05/27 06:39:35;;;;;;;12.75;5.22;;;;;;;21.05;50.88;95700.13;4911224;29;20454;-85
2022/05/27 06:42:12;;;;;;;12.63;5.95;;;;;;;21.52;51.24;95752.03;4922936;29;20046;-85
2022/05/27 06:44:38;;;;;;;19.55;6.55;;;;;;;21.60;51.10;95737.66;4921958;29;20066;-84
2022/05/27 06:47:05;;;;;;;21.35;6.25;;;;;;;20.72;51.21;95605.66;4929087;29;20486;-83
2022/05/27 06:49:32;;;;;;;21.38;6.63;;;;;;;21.30;50.83;95661.41;4916718;29;20470;-85
2022/05/27 06:51:57;;;;;;;15.43;6.05;;;;;;;21.33;50.21;95638.38;4932482;29;20113;-85
2022/05/27 06:54:23;;;;;;;21.50;7.70;;;;;;;22.00;50.12;95719.09;4914519;29;20059;-85
2022/05/27 06:56:52;;;;;;;17.70;6.10;;;;;;;21.32;49.70;95607.13;4920122;29;20556;-86
2022/05/27 06:59:19;;;;;;;13.45;6.47;;;;;;;21.17;49.97;95573.47;4929893;29;20066;-84
2022/05/27 07:01:45;;;;;;;16.95;6.28;;;;;;;21.84;49.34;95693.81;4915002;29;20063;-84
2022/05/27 07:04:11;;;;;;;13.75;4.70;;;;;;;22.10;48.57;95726.78;4919654;29;20485;-84
2022/05/27 07:06:43;;;;;;;15.38;5.70;;;;;;;22.00;48.96;95707.50;4917250;29;20110;-84
2022/05/27 07:09:11;;;;;;;13.82;5.63;;;;;;;21.44;48.98;95648.44;4924063;29;20514;-84
2022/05/27 07:11:38;;;;;;;13.50;6.05;;;;;;;21.65;49.08;95690.81;4915140;29;20080;-85
2022/05/27 07:14:04;;;;;;;16.75;6.18;;;;;;;21.49;49.56;95656.34;4930150;28;20039;-85
2022/05/27 07:16:30;;;;;;;14.13;5.15;;;;;;;21.53;49.45;95632.16;4915806;29;20185;-85
2022/05/27 07:18:56;;;;;;;11.98;6.00;;;;;;;22.06;48.60;95671.84;4917138;29;20453;-85
2022/05/27 07:21:22;;;;;;;14.68;5.55;;;;;;;21.66;47.93;95576.34;4932695;29;20032;-84
2022/05/27 07:23:51;;;;;;;15.32;5.65;;;;;;;22.24;47.81;95677.84;4914705;29;20062;-85
2022/05/27 07:26:17;;;;;;;17.98;5.70;;;;;;;22.56;48.05;95690.50;4929832;29;20585;-86
2022/05/27 07:28:42;;;;;;;17.73;6.53;;;;;;;22.57;48.19;95675.09;4914607;29;20040;-85
2022/05/27 07:31:08;;;;;;;25.55;6.13;;;;;;;22.21;46.99;95611.75;4910522;29;20061;-85
2022/05/27 07:33:33;;;;;;;17.73;5.25;;;;;;;22.17;46.54;95629.00;4915736;29;20134;-85
2022/05/27 07:35:59;;;;;;;12.00;5.20;;;;;;;22.26;45.99;95603.47;4908777;29;20494;-85
2022/05/27 07:38:27;;;;;;;13.55;4.53;;;;;;;22.19;45.96;95592.41;4907450;29;20035;-85
2022/05/27 07:40:52;;;;;;;10.65;5.15;;;;;;;21.53;46.22;95470.25;4924453;29;20424;-84
2022/05/27 07:43:19;;;;;;;16.42;5.10;;;;;;;21.60;46.16;95454.28;4906022;29;20036;-85
2022/05/27 07:45:49;;;;;;;16.65;6.43;;;;;;;20.19;46.84;95243.50;4908372;29;20070;-84
2022/05/27 07:48:14;;;;;;;20.55;6.65;;;;;;;21.76;46.45;95465.22;4919706;29;20059;-85
2022/05/27 07:50:40;;;;;;;17.85;6.13;;;;;;;23.10;45.58;95630.78;4913305;29;20150;-85
2022/05/27 07:53:06;;;;;;;11.52;5.40;;;;;;;20.46;44.03;95236.75;4912241;29;20510;-85
2022/05/27 07:55:32;;;;;;;13.73;5.53;;;;;;;19.52;44.10;95093.94;4909036;29;20279;-85
2022/05/27 07:57:58;;;;;;;12.05;4.88;;;;;;;20.49;43.61;95264.94;4925938;29;20055;-85
2022/05/27 08:00:30;;;;;;;19.38;4.82;;;;;;;21.51;44.29;95424.72;4909390;29;20137;-85
2022/05/27 08:02:56;;;;;;;11.07;5.03;;;;;;;22.82;43.57;95605.56;4924958;29;20063;-85
2022/05/27 08:05:24;;;;;;;10.93;4.72;;;;;;;23.26;43.08;95666.03;4933124;29;20067;-84
2022/05/27 08:07:51;;;;;;;16.25;3.78;;;;;;;23.26;42.10;95636.25;4928094;29;20727;-84
2022/05/27 08:10:19;;;;;;;12.82;4.07;;;;;;;23.14;41.02;95599.19;4912351;29;20460;-86
2022/05/27 08:12:45;;;;;;;14.48;4.90;;;;;;;22.56;42.20;95514.03;4901495;29;20035;-85
2022/05/27 08:15:14;;;;;;;12.85;4.32;;;;;;;22.98;42.35;95549.66;4903523;29;20733;-84
2022/05/27 08:17:40;;;;;;;9.82;4.72;;;;;;;23.02;42.26;95526.22;4917549;29;20051;-85
2022/05/27 08:20:11;;;;;;;13.95;4.28;;;;;;;23.66;43.12;95636.22;4906304;29;20035;-85
2022/05/27 08:22:39;;;;;;;9.57;4.30;;;;;;;24.00;42.92;95648.38;4924459;29;20130;-84
2022/05/27 08:25:05;;;;;;;7.35;3.80;;;;;;;23.60;42.16;95578.06;4910375;29;20426;-85
2022/05/27 08:27:31;;;;;;;15.98;4.68;;;;;;;23.60;42.34;95597.00;4922153;29;20107;-85
2022/05/27 08:29:56;;;;;;;17.23;5.22;;;;;;;23.67;42.93;95606.09;4908705;29;21162;-85
2022/05/27 08:32:22;;;;;;;15.60;5.50;;;;;;;22.49;42.84;95408.41;4910550;29;20115;-84
2022/05/27 08:40:31;;;;;;;17.95;5.78;;;;;;;23.91;42.08;95591.66;4937754;29;20141;-83
2022/05/27 08:43:20;;;;;;;23.15;5.20;;;;;;;24.11;41.47;95625.03;4916152;29;20167;-85
2022/05/27 08:46:09;;;;;;;13.02;4.80;;;;;;;24.19;41.37;95624.88;4912995;29;20181;-85
2022/05/27 08:48:38;;;;;;;13.10;4.88;;;;;;;23.58;41.44;95518.84;4932350;29;20055;-84
2022/05/27 08:51:13;;;;;;;11.60;4.93;;;;;;;24.37;41.66;95619.94;4906786;29;20094;-84
2022/05/27 08:53:50;;;;;;;10.63;5.15;;;;;;;24.47;40.96;95611.28;4912526;29;20453;-84
2022/05/27 08:59:27;;;;;;;17.15;5.20;;;;;;;24.46;41.94;95612.41;4935790;29;20549;-84
2022/05/27 09:02:06;;;;;;;14.63;5.20;;;;;;;24.09;41.56;95600.22;4948831;29;20050;-85
2022/05/27 09:04:46;;;;;;;13.48;4.65;;;;;;;24.14;41.58;95613.50;4920944;29;20039;-85
2022/05/27 09:07:40;;;;;;;14.75;4.30;;;;;;;23.92;41.28;95513.88;4929829;29;20151;-85
2022/05/27 09:10:12;;;;;;;11.00;5.18;;;;;;;24.22;42.76;95539.41;4917166;29;20031;-83
2022/05/27 09:12:40;;;;;;;14.23;5.47;;;;;;;24.79;41.75;95603.09;4920724;29;20059;-84
2022/05/27 09:15:18;;;;;;;15.85;5.10;;;;;;;24.96;42.34;95598.06;4936208;29;20032;-86
2022/05/27 09:17:52;;;;;;;11.98;4.60;;;;;;;24.68;42.18;95528.81;4943419;29;20087;-84
2022/05/27 09:20:30;;;;;;;18.65;5.72;;;;;;;25.11;40.48;95601.06;4932737;29;20070;-83
2022/05/27 09:23:14;;;;;;;14.73;4.90;;;;;;;24.90;41.19;95590.53;4913821;29;20041;-84
2022/05/27 09:26:06;;;;;;;14.73;5.25;;;;;;;24.94;40.07;95596.88;4933255;29;20039;-85
2022/05/27 09:28:38;;;;;;;16.15;5.47;;;;;;;25.12;40.71;95584.44;4917579;29;20125;-85
2022/05/27 09:31:10;;;;;;;13.45;5.18;;;;;;;24.92;39.88;95558.44;4929618;29;20032;-84
2022/05/27 09:33:37;;;;;;;14.30;4.53;;;;;;;24.65;39.95;95534.94;4932545;29;20087;-84
2022/05/27 09:36:09;;;;;;;19.13;4.93;;;;;;;25.06;40.64;95576.94;4938803;29;20152;-83
2022/05/27 09:38:43;;;;;;;13.88;4.25;;;;;;;25.27;40.02;95575.44;4921660;29;20049;-83
2022/05/27 09:41:23;;;;;;;14.68;5.32;;;;;;;24.12;39.61;95344.81;4932866;29;20027;-83
2022/05/27 09:43:55;;;;;;;18.90;5.03;;;;;;;25.97;38.40;95545.34;4917522;29;20031;-83
2022/05/27 09:46:30;;;;;;;13.15;4.97;;;;;;;27.20;37.05;95559.25;4914982;29;20043;-84
2022/05/27 09:48:57;;;;;;;14.30;4.55;;;;;;;26.66;35.03;95333.88;4929019;29;20054;-84
2022/05/27 09:51:24;;;;;;;15.85;4.13;;;;;;;28.62;33.68;95554.38;4935270;29;20050;-84
2022/05/27 09:53:53;;;;;;;15.63;4.38;;;;;;;29.45;32.33;95529.88;4918296;29;20042;-84
2022/05/27 09:56:43;;;;;;;15.40;4.22;;;;;;;30.10;31.21;95515.19;4918788;29;20684;-84
2022/05/27 09:59:36;;;;;;;13.95;4.38;;;;;;;30.43;30.87;95539.41;4927356;29;20039;-87
2022/05/27 10:02:26;;;;;;;13.55;4.13;;;;;;;31.00;29.48;95548.31;4920761;29;20631;-85
2022/05/27 10:05:05;;;;;;;9.18;3.30;;;;;;;31.38;28.84;95549.38;4917404;29;20129;-85
2022/05/27 10:07:44;;;;;;;9.63;3.35;;;;;;;31.71;28.31;95541.81;4915996;29;20142;-86
2022/05/27 10:10:21;;;;;;;10.98;3.72;;;;;;;31.52;28.06;95476.47;4918602;29;20091;-85
2022/05/27 10:12:48;;;;;;;15.57;4.30;;;;;;;31.95;27.63;95505.22;4920718;29;20178;-85
2022/05/27 10:15:35;;;;;;;14.32;4.20;;;;;;;32.46;26.97;95484.41;4916044;29;20028;-84
2022/05/27 10:18:26;;;;;;;14.43;3.85;;;;;;;33.22;26.73;95527.97;4916999;29;20102;-85
2022/05/27 10:21:09;;;;;;;13.55;3.97;;;;;;;32.98;26.17;95476.81;4915858;29;20515;-85
2022/05/27 10:23:40;;;;;;;10.90;3.78;;;;;;;32.63;26.81;95475.22;4942800;29;20032;-85
2022/05/27 10:26:29;;;;;;;16.20;3.72;;;;;;;33.31;26.39;95508.25;4928558;29;20608;-84
2022/05/27 10:29:08;;;;;;;11.85;3.90;;;;;;;32.95;25.82;95472.94;4929300;29;20059;-83
2022/05/27 10:31:35;;;;;;;10.85;3.78;;;;;;;33.21;25.37;95448.69;4929243;29;20039;-84
2022/05/27 10:34:01;;;;;;;21.70;3.90;;;;;;;33.01;24.29;95412.81;4905475;29;20466;-82
2022/05/27 10:36:43;;;;;;;14.55;3.40;;;;;;;33.41;25.06;95471.59;4909807;29;20415;-83
2022/05/27 10:39:14;;;;;;;11.70;3.80;;;;;;;32.88;25.26;95451.03;4905664;29;20039;-83
2022/05/27 10:41:49;;;;;;;16.02;3.38;;;;;;;32.99;25.36;95491.31;4899882;29;20119;-83
2022/05/27 10:44:17;;;;;;;10.23;3.50;;;;;;;33.08;25.26;95486.13;4900811;29;20138;-84
2022/05/27 10:46:54;;;;;;;13.65;3.70;;;;;;;32.60;25.09;95399.16;4906682;29;20227;-84
2022/05/27 10:49:44;;;;;;;12.55;3.28;;;;;;;33.56;24.81;95475.69;4925263;28;20046;-82
2022/05/27 10:52:52;;;;;;;11.68;3.72;;;;;;;33.36;24.14;95457.50;4909834;29;20032;-82
2022/05/27 10:55:46;;;;;;;19.92;3.83;;;;;;;33.16;23.41;95482.88;4867369;29;20137;-82
2022/05/27 11:04:48;;;;;;;14.10;3.40;;;;;;;32.31;25.16;95463.78;4832845;29;20164;-83
2022/05/27 11:07:13;;;;;;;10.05;3.35;;;;;;;32.77;24.32;95453.13;4922665;29;20047;-82
2022/05/27 11:09:55;;;;;;;13.13;3.38;;;;;;;31.98;24.79;95411.13;4927868;29;20108;-83
2022/05/27 11:15:10;;;;;;;9.07;3.20;;;;;;;32.41;25.28;95443.69;4927852;29;20545;-83
2022/05/27 11:15:33;;;;;;;12.50;3.38;;;;;;;32.42;25.02;95442.50;4929683;29;20095;-83
2022/05/27 11:18:06;;;;;;;14.05;3.97;;;;;;;32.11;24.94;95370.28;4925719;29;20039;-83
2022/05/27 11:20:34;;;;;;;11.75;3.80;;;;;;;32.48;25.21;95438.13;4924973;29;20126;-83
2022/05/27 11:23:39;;;;;;;15.38;3.78;;;;;;;31.48;25.74;95385.28;4931432;29;20370;-84
2022/05/27 11:26:15;;;;;;;9.45;3.33;;;;;;;32.37;25.54;95426.47;4907602;29;20066;-84
2022/05/27 11:29:07;;;;;;;13.88;3.35;;;;;;;32.13;25.54;95398.06;4923282;29;20541;-83
2022/05/27 11:32:13;;;;;;;12.05;4.20;;;;;;;32.37;25.39;95401.78;4927743;29;20036;-83
2022/05/27 11:35:07;;;;;;;12.25;3.13;;;;;;;32.53;24.61;95374.53;4892916;29;20057;-82
2022/05/27 11:37:33;;;;;;;17.55;3.97;;;;;;;33.00;24.80;95399.47;4924461;29;20047;-81
2022/05/27 11:40:01;;;;;;;12.07;4.22;;;;;;;32.83;25.01;95404.78;4906986;29;20059;-82
2022/05/27 11:42:56;;;;;;;12.55;4.03;;;;;;;32.89;25.45;95389.41;4913468;29;20043;-82
2022/05/27 11:45:29;;;;;;;13.75;3.38;;;;;;;32.65;25.06;95352.03;4927614;29;20578;-82
2022/05/27 11:48:16;;;;;;;19.65;4.38;;;;;;;32.70;25.04;95350.81;4905014;29;20078;-82
2022/05/27 11:51:00;;;;;;;17.05;4.50;;;;;;;32.38;25.83;95384.91;4906130;29;20032;-82
2022/05/27 11:53:41;;;;;;;11.23;4.32;;;;;;;32.26;25.76;95381.91;4923409;29;20510;-82
2022/05/27 11:56:22;;;;;;;13.30;4.32;;;;;;;32.34;25.66;95377.91;4921364;29;20354;-82
2022/05/27 11:58:59;;;;;;;9.10;3.88;;;;;;;32.04;25.72;95301.78;4909429;29;20224;-82
2022/05/27 12:01:43;;;;;;;17.23;4.53;;;;;;;32.59;25.90;95339.94;4914650;29;20121;-82
2022/05/27 12:04:15;;;;;;;15.85;3.83;;;;;;;32.76;25.52;95360.16;4930857;29;20050;-83
2022/05/27 12:06:48;;;;;;;14.55;3.55;;;;;;;32.44;25.92;95311.88;4923905;29;20071;-82
2022/05/27 12:09:23;;;;;;;13.32;3.97;;;;;;;32.11;26.07;95313.44;4903581;29;20042;-83
2022/05/27 12:12:01;;;;;;;17.15;5.28;;;;;;;32.32;26.33;95356.34;4925360;29;20027;-83
2022/05/27 12:14:53;;;;;;;15.15;3.90;;;;;;;32.64;26.17;95328.53;4931797;29;20042;-84
2022/05/27 12:17:22;;;;;;;11.35;3.60;;;;;;;33.00;25.20;95356.31;4915973;29;20047;-83